IN-0030 weather

Serchhip Helipad
Serchhip, Mizoram, India

Public forecast

Using degrees Celsius for public forecast. Weather courtesy of forecast.io.

Closest aviation weather report (METAR) to Serchhip Helipad

Report is more than 6 hours old.

Closest report is Lengpui Airport, 33.4 nm (61.8 km) NNW. Retrieved 2020/02/18 11:00 UTC (7 hours ago):

VELP 181100Z 22006KT 3000 HZ NSC 25/10 Q1013 NOSIG

Closest aviation forecast (TAF) to Serchhip Helipad

Closest forecast is Shah Amanat International Airport, 86.8 nm (160.7 km) SW. Retrieved 2020/02/18 18:39 UTC (0 seconds ago):

TAF TAF VGEG 181700Z 1818/1924 06005KT 9500 HZ FEW016 TEMPO 1821/1903 00000KT 0800 FG SCT008 BECMG 1903/1905 12008KT 3400 HZ FEW018 BECMG 1911/1913 33006KT 3200 HZ FEW013